Time;durP1;ratioP1;P1;durP2;ratioP2;P2;SDS_P1;SDS_P2;PMS_P1;PMS_P2;Temp;Humidity;BMP_temperature;BMP_pressure;BME280_temperature;BME280_humidity;BME280_pressure;Samples;Min_cycle;Max_cycle;Signal;HPM_P1;HPM_P2
2022/02/17 00:01:11;;;;;;;17.48;1.88;;;;;;;;;;5019103;28;20045;-59
2022/02/17 00:03:37;;;;;;;13.80;1.38;;;;;;;;;;5017967;28;20052;-59
2022/02/17 00:06:02;;;;;;;20.23;1.70;;;;;;;;;;5018136;28;20408;-59
2022/02/17 00:08:28;;;;;;;23.05;2.30;;;;;;;;;;5021680;28;20029;-59
2022/02/17 00:10:53;;;;;;;22.88;2.10;;;;;;;;;;5019786;28;20036;-54
2022/02/17 00:13:19;;;;;;;16.55;1.60;;;;;;;;;;5018495;28;20115;-54
2022/02/17 00:15:46;;;;;;;23.17;3.03;;;;;;;;;;5019787;28;20057;-59
2022/02/17 00:18:23;;;;;;;19.90;2.28;;;;;;;;;;5023051;28;20044;-59
2022/02/17 00:20:56;;;;;;;23.55;2.10;;;;;;;;;;5018956;28;20025;-58
2022/02/17 00:23:22;;;;;;;21.85;2.45;;;;;;;;;;5020825;28;20038;-56
2022/02/17 00:25:47;;;;;;;10.85;2.15;;;;;;;;;;5022739;28;20033;-59
2022/02/17 00:28:13;;;;;;;20.35;1.83;;;;;;;;;;5026064;28;20049;-59
2022/02/17 00:30:38;;;;;;;20.92;2.13;;;;;;;;;;5023546;28;20076;-57
2022/02/17 00:33:04;;;;;;;26.33;2.72;;;;;;;;;;5023965;28;20083;-59
2022/02/17 00:35:32;;;;;;;17.58;2.13;;;;;;;;;;5020695;28;20165;-60
2022/02/17 00:37:58;;;;;;;14.15;1.63;;;;;;;;;;5019453;28;20033;-60
2022/02/17 00:40:24;;;;;;;17.55;1.60;;;;;;;;;;5025127;28;20029;-59
2022/02/17 00:42:50;;;;;;;17.23;1.88;;;;;;;;;;5024297;28;20033;-56
2022/02/17 00:45:15;;;;;;;17.48;2.33;;;;;;;;;;5024300;28;20073;-58
2022/02/17 00:47:41;;;;;;;18.02;1.65;;;;;;;;;;5023755;28;20064;-61
2022/02/17 00:50:07;;;;;;;18.40;2.35;;;;;;;;;;5021676;28;20121;-59
2022/02/17 00:52:32;;;;;;;16.52;1.50;;;;;;;;;;5022766;28;20123;-59
2022/02/17 00:54:58;;;;;;;13.70;1.67;;;;;;;;;;5026318;28;20028;-59
2022/02/17 00:57:24;;;;;;;24.50;1.90;;;;;;;;;;5023439;28;20040;-60
2022/02/17 00:59:49;;;;;;;11.27;2.00;;;;;;;;;;5018476;28;20511;-59
2022/02/17 01:02:15;;;;;;;16.05;2.28;;;;;;;;;;5019182;28;20099;-59
2022/02/17 01:04:40;;;;;;;7.68;1.13;;;;;;;;;;5024869;28;20026;-59
2022/02/17 01:07:06;;;;;;;13.70;1.58;;;;;;;;;;5024084;28;20112;-60
2022/02/17 01:09:31;;;;;;;12.65;1.88;;;;;;;;;;5021728;28;20049;-60
2022/02/17 01:11:57;;;;;;;16.98;1.48;;;;;;;;;;5017146;28;20091;-58
2022/02/17 01:14:22;;;;;;;14.52;2.13;;;;;;;;;;5024267;28;20479;-60
2022/02/17 01:16:48;;;;;;;17.80;1.60;;;;;;;;;;5021914;28;20047;-59
2022/02/17 01:19:15;;;;;;;14.30;1.83;;;;;;;;;;5023503;28;20045;-59
2022/02/17 01:21:40;;;;;;;13.45;2.40;;;;;;;;;;5024049;28;20025;-58
2022/02/17 01:24:06;;;;;;;12.15;1.50;;;;;;;;;;5020756;28;22970;-59
2022/02/17 01:26:31;;;;;;;13.23;1.60;;;;;;;;;;5020972;28;20480;-58
2022/02/17 01:28:57;;;;;;;10.18;1.50;;;;;;;;;;5016959;28;20048;-57
2022/02/17 01:31:23;;;;;;;18.98;2.20;;;;;;;;;;5023027;28;20094;-57
2022/02/17 01:33:48;;;;;;;26.60;3.00;;;;;;;;;;5020483;28;20049;-56
2022/02/17 01:36:14;;;;;;;18.17;1.85;;;;;;;;;;5017320;28;20419;-57
2022/02/17 01:38:41;;;;;;;8.60;1.92;;;;;;;;;;5024353;28;20076;-58
2022/02/17 01:41:08;;;;;;;22.05;2.15;;;;;;;;;;5022763;28;20037;-58
2022/02/17 01:43:35;;;;;;;13.88;2.05;;;;;;;;;;5025402;28;20671;-58
2022/02/17 01:46:01;;;;;;;18.15;2.10;;;;;;;;;;5020627;28;20108;-57
2022/02/17 01:48:27;;;;;;;21.02;2.25;;;;;;;;;;5023717;28;20025;-58
2022/02/17 01:50:53;;;;;;;17.67;1.85;;;;;;;;;;5021883;28;20125;-57
2022/02/17 01:53:20;;;;;;;20.95;2.75;;;;;;;;;;5016920;28;20539;-58
2022/02/17 01:55:48;;;;;;;18.05;3.00;;;;;;;;;;5019016;28;20502;-58
2022/02/17 01:58:15;;;;;;;9.32;1.42;;;;;;;;;;5018751;28;20041;-58
2022/02/17 02:00:44;;;;;;;16.65;2.22;;;;;;;;;;5019496;28;20377;-58
2022/02/17 02:03:11;;;;;;;8.43;1.35;;;;;;;;;;5020402;28;20029;-58
2022/02/17 02:05:37;;;;;;;15.90;2.13;;;;;;;;;;5022367;28;20040;-59
2022/02/17 02:08:04;;;;;;;22.13;1.77;;;;;;;;;;5020524;28;20041;-58
2022/02/17 02:10:29;;;;;;;21.90;1.45;;;;;;;;;;5032281;28;20087;-59
2022/02/17 02:12:55;;;;;;;8.68;1.45;;;;;;;;;;5021596;28;20033;-56
2022/02/17 02:15:21;;;;;;;16.83;1.33;;;;;;;;;;5023883;28;20307;-57
2022/02/17 02:17:46;;;;;;;5.20;0.77;;;;;;;;;;5022306;28;20025;-58
2022/02/17 02:20:18;;;;;;;10.32;1.15;;;;;;;;;;5024874;28;20072;-58
2022/02/17 02:22:45;;;;;;;21.55;1.67;;;;;;;;;;5018260;28;20437;-59
2022/02/17 02:25:11;;;;;;;15.30;3.08;;;;;;;;;;5020991;28;20040;-58
2022/02/17 02:27:37;;;;;;;12.65;1.08;;;;;;;;;;5023078;28;20038;-57
2022/02/17 02:30:04;;;;;;;11.63;1.40;;;;;;;;;;5023627;28;20037;-59
2022/02/17 02:32:29;;;;;;;12.63;1.77;;;;;;;;;;5027414;28;20064;-61
2022/02/17 02:34:55;;;;;;;10.15;1.75;;;;;;;;;;5025021;28;20072;-60
2022/02/17 02:37:20;;;;;;;15.57;1.48;;;;;;;;;;5018839;28;20109;-59
2022/02/17 02:39:46;;;;;;;4.97;0.93;;;;;;;;;;5020837;28;20033;-58
2022/02/17 02:42:12;;;;;;;5.55;1.55;;;;;;;;;;5021349;28;20252;-59
2022/02/17 02:44:37;;;;;;;7.45;1.02;;;;;;;;;;5024683;28;20034;-59
2022/02/17 02:47:04;;;;;;;11.88;1.60;;;;;;;;;;5025159;28;20032;-59
2022/02/17 02:49:29;;;;;;;7.22;1.30;;;;;;;;;;5021170;28;20029;-59
2022/02/17 02:51:55;;;;;;;12.98;1.85;;;;;;;;;;5021820;28;20048;-59
2022/02/17 02:54:20;;;;;;;14.43;1.50;;;;;;;;;;5018672;28;20276;-59
2022/02/17 02:56:46;;;;;;;17.60;1.15;;;;;;;;;;5022905;28;20113;-58
2022/02/17 02:59:11;;;;;;;16.35;1.58;;;;;;;;;;5021810;28;20299;-58
2022/02/17 03:01:37;;;;;;;20.58;2.22;;;;;;;;;;5014975;28;20038;-59
2022/02/17 03:04:03;;;;;;;15.43;1.30;;;;;;;;;;5012943;28;20500;-59
2022/02/17 03:06:32;;;;;;;11.50;1.15;;;;;;;;;;5019671;28;20930;-58
2022/02/17 03:08:58;;;;;;;12.77;1.52;;;;;;;;;;5020565;28;20677;-58
2022/02/17 03:11:24;;;;;;;14.45;1.75;;;;;;;;;;5020804;28;20358;-59
2022/02/17 03:13:49;;;;;;;13.30;1.30;;;;;;;;;;5014107;28;20060;-59
2022/02/17 03:16:15;;;;;;;19.35;2.42;;;;;;;;;;5019342;28;20179;-59
2022/02/17 03:18:43;;;;;;;7.40;1.50;;;;;;;;;;5020173;28;20120;-58
2022/02/17 03:21:09;;;;;;;9.90;1.25;;;;;;;;;;5019097;28;20033;-59
2022/02/17 03:23:34;;;;;;;11.32;1.35;;;;;;;;;;5016669;28;20035;-58
2022/02/17 03:26:00;;;;;;;15.10;2.47;;;;;;;;;;5020802;28;20527;-58
2022/02/17 03:28:26;;;;;;;18.92;2.38;;;;;;;;;;5022382;28;20119;-59
2022/02/17 03:30:53;;;;;;;16.17;1.65;;;;;;;;;;5027165;28;20036;-58
2022/02/17 03:33:19;;;;;;;15.88;1.35;;;;;;;;;;5017201;28;20072;-59
2022/02/17 03:35:47;;;;;;;13.25;1.98;;;;;;;;;;5019244;28;20042;-59
2022/02/17 03:38:13;;;;;;;12.93;1.90;;;;;;;;;;5017934;28;20068;-60
2022/02/17 03:40:38;;;;;;;20.42;2.40;;;;;;;;;;5017292;28;20057;-59
2022/02/17 03:43:04;;;;;;;12.77;1.73;;;;;;;;;;5023102;28;20491;-55
2022/02/17 03:45:29;;;;;;;19.23;1.85;;;;;;;;;;5024931;28;20029;-60
2022/02/17 03:47:55;;;;;;;7.60;1.20;;;;;;;;;;5023101;28;20083;-59
2022/02/17 03:50:20;;;;;;;10.35;1.17;;;;;;;;;;5020497;28;20780;-58
2022/02/17 03:52:46;;;;;;;8.45;1.38;;;;;;;;;;5021324;28;20033;-59
2022/02/17 03:55:12;;;;;;;7.70;0.85;;;;;;;;;;5020485;28;20037;-59
2022/02/17 03:57:37;;;;;;;8.55;1.35;;;;;;;;;;5024044;28;20045;-56
2022/02/17 04:00:04;;;;;;;2.38;0.47;;;;;;;;;;5023161;28;20104;-59
2022/02/17 04:02:30;;;;;;;3.75;0.63;;;;;;;;;;5020085;28;20551;-60
2022/02/17 04:04:55;;;;;;;2.42;0.43;;;;;;;;;;5024260;28;20124;-60
2022/02/17 04:07:21;;;;;;;1.15;0.28;;;;;;;;;;5022896;28;20138;-59
2022/02/17 04:09:46;;;;;;;5.95;0.70;;;;;;;;;;5017728;28;20083;-59
2022/02/17 04:12:13;;;;;;;10.70;0.63;;;;;;;;;;5021884;28;20045;-59
2022/02/17 04:14:39;;;;;;;1.67;0.40;;;;;;;;;;5026468;28;20042;-57
2022/02/17 04:17:05;;;;;;;1.70;0.65;;;;;;;;;;5020967;28;20037;-59
2022/02/17 04:19:32;;;;;;;3.35;0.35;;;;;;;;;;5023336;28;20033;-59
2022/02/17 04:21:58;;;;;;;1.15;0.20;;;;;;;;;;5018780;28;20038;-59
2022/02/17 04:24:23;;;;;;;1.95;0.68;;;;;;;;;;5024312;28;20038;-59
2022/02/17 04:26:49;;;;;;;4.78;0.50;;;;;;;;;;5018067;28;20037;-59
2022/02/17 04:29:14;;;;;;;1.88;0.38;;;;;;;;;;5021211;28;20049;-59
2022/02/17 04:31:40;;;;;;;0.82;0.20;;;;;;;;;;5024678;28;20492;-58
2022/02/17 04:34:05;;;;;;;5.25;1.20;;;;;;;;;;5017748;28;20082;-57
2022/02/17 04:36:31;;;;;;;4.22;0.50;;;;;;;;;;5019355;28;20233;-59
2022/02/17 04:38:56;;;;;;;4.03;0.52;;;;;;;;;;5023523;28;20038;-58
2022/02/17 04:44:06;;;;;;;4.03;0.90;;;;;;;;;;5022748;28;20052;-59
2022/02/17 04:46:32;;;;;;;7.68;1.15;;;;;;;;;;5008287;28;20029;-59
2022/02/17 04:48:57;;;;;;;2.30;0.57;;;;;;;;;;5018453;28;20037;-59
2022/02/17 04:51:23;;;;;;;13.15;1.42;;;;;;;;;;5017310;28;20033;-59
2022/02/17 04:53:48;;;;;;;9.93;0.82;;;;;;;;;;5017718;28;20033;-59
2022/02/17 04:56:14;;;;;;;1.35;0.52;;;;;;;;;;5029774;28;20034;-59
2022/02/17 04:58:40;;;;;;;3.97;0.38;;;;;;;;;;5018898;28;20117;-59
2022/02/17 05:01:05;;;;;;;1.90;0.68;;;;;;;;;;5022735;28;21189;-59
2022/02/17 05:03:30;;;;;;;2.38;0.38;;;;;;;;;;5023089;28;20045;-58
2022/02/17 05:05:56;;;;;;;3.33;0.55;;;;;;;;;;5022116;28;20037;-58
2022/02/17 05:08:22;;;;;;;3.53;0.35;;;;;;;;;;5013962;28;20477;-59
2022/02/17 05:10:48;;;;;;;4.20;2.33;;;;;;;;;;5016645;28;20029;-58
2022/02/17 05:13:14;;;;;;;3.60;0.40;;;;;;;;;;5021065;28;20508;-59
2022/02/17 05:15:39;;;;;;;3.40;0.50;;;;;;;;;;5016664;28;20117;-59
2022/02/17 05:18:05;;;;;;;8.95;0.50;;;;;;;;;;5022220;28;20588;-57
2022/02/17 05:20:31;;;;;;;7.03;0.50;;;;;;;;;;5024416;28;20038;-58
2022/02/17 05:22:56;;;;;;;4.60;0.68;;;;;;;;;;5019581;28;20117;-57
2022/02/17 05:25:22;;;;;;;2.45;0.60;;;;;;;;;;5020613;28;20038;-58
2022/02/17 05:27:48;;;;;;;1.20;0.73;;;;;;;;;;5020625;28;20037;-58
2022/02/17 05:30:13;;;;;;;4.03;0.88;;;;;;;;;;5024227;28;20046;-58
2022/02/17 05:32:42;;;;;;;2.72;0.55;;;;;;;;;;5017387;28;20095;-57
2022/02/17 05:35:09;;;;;;;4.43;0.95;;;;;;;;;;5018401;28;20049;-60
2022/02/17 05:37:36;;;;;;;7.63;0.60;;;;;;;;;;5015821;28;20033;-58
2022/02/17 05:40:03;;;;;;;7.60;1.15;;;;;;;;;;5020554;28;20129;-58
2022/02/17 05:42:29;;;;;;;3.83;0.60;;;;;;;;;;5019154;28;20091;-58
2022/02/17 05:44:55;;;;;;;9.27;1.38;;;;;;;;;;5025919;28;20025;-59
2022/02/17 05:47:20;;;;;;;7.93;1.25;;;;;;;;;;5018408;28;20042;-58
2022/02/17 05:49:46;;;;;;;7.10;0.73;;;;;;;;;;5019926;28;20052;-57
2022/02/17 05:52:11;;;;;;;2.17;0.70;;;;;;;;;;5021748;28;20434;-57
2022/02/17 05:54:37;;;;;;;5.45;0.55;;;;;;;;;;5021116;28;20067;-57
2022/02/17 05:57:03;;;;;;;4.13;0.77;;;;;;;;;;5028663;28;20377;-57
2022/02/17 05:59:29;;;;;;;7.72;0.80;;;;;;;;;;5024085;28;20567;-58
2022/02/17 06:01:54;;;;;;;13.10;1.35;;;;;;;;;;5021975;28;20135;-58
2022/02/17 06:04:20;;;;;;;7.75;0.90;;;;;;;;;;5019135;28;20360;-58
2022/02/17 06:06:45;;;;;;;10.18;0.50;;;;;;;;;;5018946;28;20029;-58
2022/02/17 06:09:11;;;;;;;13.90;2.17;;;;;;;;;;5026339;28;20048;-58
2022/02/17 06:11:36;;;;;;;5.65;1.08;;;;;;;;;;5022720;28;20029;-60
2022/02/17 06:14:02;;;;;;;7.43;1.25;;;;;;;;;;5022981;28;20108;-58
2022/02/17 06:16:28;;;;;;;10.63;1.42;;;;;;;;;;5021073;28;20194;-57
2022/02/17 06:18:53;;;;;;;8.57;1.17;;;;;;;;;;5026963;28;20055;-58
2022/02/17 06:21:18;;;;;;;5.18;0.95;;;;;;;;;;5028290;28;20056;-57
2022/02/17 06:23:44;;;;;;;16.92;1.88;;;;;;;;;;5028770;28;20128;-58
2022/02/17 06:26:09;;;;;;;3.53;0.77;;;;;;;;;;5021485;28;20053;-57
2022/02/17 06:28:36;;;;;;;12.60;1.55;;;;;;;;;;5023216;28;20135;-56
2022/02/17 06:31:02;;;;;;;11.52;0.80;;;;;;;;;;5024050;28;20060;-58
2022/02/17 06:33:28;;;;;;;9.93;1.65;;;;;;;;;;5017654;28;20052;-58
2022/02/17 06:35:53;;;;;;;21.85;2.33;;;;;;;;;;5021367;28;20096;-58
2022/02/17 06:38:19;;;;;;;9.27;0.93;;;;;;;;;;5020220;28;20246;-57
2022/02/17 06:40:45;;;;;;;10.88;1.65;;;;;;;;;;5023822;28;20037;-58
2022/02/17 06:43:12;;;;;;;7.82;1.25;;;;;;;;;;5021725;28;20064;-57
2022/02/17 06:45:40;;;;;;;10.07;0.82;;;;;;;;;;5022351;28;20033;-60
2022/02/17 06:48:07;;;;;;;14.43;1.65;;;;;;;;;;5015720;28;20047;-58
2022/02/17 06:50:35;;;;;;;9.52;1.35;;;;;;;;;;5023586;28;20045;-60
2022/02/17 06:53:01;;;;;;;18.45;1.60;;;;;;;;;;5014290;28;20053;-58
2022/02/17 06:55:27;;;;;;;11.80;1.35;;;;;;;;;;5019460;28;20037;-58
2022/02/17 06:57:53;;;;;;;5.95;0.88;;;;;;;;;;5019059;28;23354;-59
2022/02/17 07:00:19;;;;;;;8.27;1.27;;;;;;;;;;5017585;28;20047;-59
2022/02/17 07:02:52;;;;;;;22.48;2.15;;;;;;;;;;5015350;28;20025;-58
2022/02/17 07:05:22;;;;;;;20.15;1.83;;;;;;;;;;5022613;28;20088;-59
2022/02/17 07:07:48;;;;;;;15.43;1.92;;;;;;;;;;5014370;28;20781;-58
2022/02/17 07:10:14;;;;;;;13.10;1.52;;;;;;;;;;5023762;28;20045;-59
2022/02/17 07:12:43;;;;;;;17.77;1.48;;;;;;;;;;5019313;28;20082;-60
2022/02/17 07:15:11;;;;;;;17.35;1.45;;;;;;;;;;5019660;28;20049;-58
2022/02/17 07:17:37;;;;;;;11.45;1.25;;;;;;;;;;5017924;28;20535;-58
2022/02/17 07:20:03;;;;;;;22.20;2.33;;;;;;;;;;5017988;28;20033;-59
2022/02/17 07:22:29;;;;;;;20.40;2.17;;;;;;;;;;5022742;28;20040;-58
2022/02/17 07:24:56;;;;;;;18.10;1.98;;;;;;;;;;5023145;28;20338;-57
2022/02/17 07:27:22;;;;;;;23.23;2.47;;;;;;;;;;5020798;28;20033;-59
2022/02/17 07:29:47;;;;;;;19.27;2.15;;;;;;;;;;5022675;28;20037;-59
2022/02/17 07:32:13;;;;;;;17.55;1.38;;;;;;;;;;5015261;28;20402;-59
2022/02/17 07:34:38;;;;;;;18.42;1.90;;;;;;;;;;5018805;28;20041;-58
2022/02/17 07:37:04;;;;;;;23.17;1.95;;;;;;;;;;5022742;28;20045;-59
2022/02/17 07:39:30;;;;;;;16.08;1.58;;;;;;;;;;5023945;28;20461;-58
2022/02/17 07:41:55;;;;;;;22.30;1.65;;;;;;;;;;5022760;28;20403;-59
2022/02/17 07:44:25;;;;;;;11.73;1.60;;;;;;;;;;5022090;28;20083;-59
2022/02/17 07:46:52;;;;;;;18.73;1.63;;;;;;;;;;5022814;28;20045;-58
2022/02/17 07:49:17;;;;;;;16.30;2.55;;;;;;;;;;5021452;28;20061;-58
2022/02/17 07:51:44;;;;;;;13.32;1.50;;;;;;;;;;5022771;28;20056;-58
2022/02/17 07:54:09;;;;;;;18.27;1.55;;;;;;;;;;5021200;28;20029;-59
2022/02/17 07:56:35;;;;;;;11.10;1.50;;;;;;;;;;5020086;28;20025;-58
2022/02/17 07:59:00;;;;;;;20.15;1.38;;;;;;;;;;5023014;28;20602;-58
2022/02/17 08:01:26;;;;;;;22.23;2.05;;;;;;;;;;5019899;28;20049;-59
2022/02/17 08:03:51;;;;;;;21.42;3.10;;;;;;;;;;5018188;28;20084;-59
2022/02/17 08:06:17;;;;;;;27.77;1.90;;;;;;;;;;5017234;28;20547;-59
2022/02/17 08:08:48;;;;;;;17.65;3.63;;;;;;;;;;5021972;28;20022;-58
2022/02/17 08:11:14;;;;;;;21.58;2.03;;;;;;;;;;5021312;28;20039;-59
2022/02/17 08:13:40;;;;;;;18.45;1.55;;;;;;;;;;5020412;28;20044;-57
2022/02/17 08:16:05;;;;;;;14.30;1.45;;;;;;;;;;5027862;28;20488;-59
2022/02/17 08:18:31;;;;;;;27.35;2.17;;;;;;;;;;5023490;28;20060;-59
2022/02/17 08:20:56;;;;;;;20.50;2.20;;;;;;;;;;5023482;28;20063;-59
2022/02/17 08:23:23;;;;;;;20.75;2.35;;;;;;;;;;5017254;28;20034;-58
2022/02/17 08:25:49;;;;;;;25.35;2.22;;;;;;;;;;5021820;28;20030;-58
2022/02/17 08:28:15;;;;;;;18.77;2.20;;;;;;;;;;5024766;28;20029;-59
2022/02/17 08:30:40;;;;;;;8.65;1.60;;;;;;;;;;5024324;28;20033;-58
2022/02/17 08:33:06;;;;;;;21.27;2.00;;;;;;;;;;5018567;28;20043;-59
2022/02/17 08:35:31;;;;;;;16.80;2.42;;;;;;;;;;5022994;28;20046;-58
2022/02/17 08:37:59;;;;;;;8.88;1.50;;;;;;;;;;5020743;28;20477;-58
2022/02/17 08:40:25;;;;;;;18.45;2.35;;;;;;;;;;5025490;28;20071;-59
2022/02/17 08:42:51;;;;;;;21.58;1.73;;;;;;;;;;5025542;28;20504;-58
2022/02/17 08:45:16;;;;;;;16.75;1.45;;;;;;;;;;5026609;28;20132;-59
2022/02/17 08:47:42;;;;;;;24.95;2.47;;;;;;;;;;5025575;28;20492;-58
2022/02/17 08:50:09;;;;;;;23.13;1.50;;;;;;;;;;5025140;28;20267;-58
2022/02/17 08:52:38;;;;;;;20.42;2.25;;;;;;;;;;5026996;28;20087;-59
2022/02/17 08:55:06;;;;;;;21.95;2.92;;;;;;;;;;5018716;28;20095;-58
2022/02/17 08:57:32;;;;;;;23.88;2.70;;;;;;;;;;5022462;28;20063;-58
2022/02/17 08:59:58;;;;;;;22.50;3.67;;;;;;;;;;5025559;28;20041;-59
2022/02/17 09:02:23;;;;;;;22.98;3.75;;;;;;;;;;5023861;28;20037;-59
2022/02/17 09:04:49;;;;;;;19.10;1.92;;;;;;;;;;5026141;28;20017;-59
2022/02/17 09:07:14;;;;;;;9.98;1.27;;;;;;;;;;5027859;28;20061;-59
2022/02/17 09:09:40;;;;;;;17.80;2.55;;;;;;;;;;5022075;28;20044;-59
2022/02/17 09:12:06;;;;;;;17.92;2.38;;;;;;;;;;5023195;28;20056;-58
2022/02/17 09:14:31;;;;;;;12.90;1.33;;;;;;;;;;5025430;28;20112;-59
2022/02/17 09:16:57;;;;;;;16.65;1.88;;;;;;;;;;5029542;28;20116;-59
2022/02/17 09:19:23;;;;;;;14.13;1.88;;;;;;;;;;5026248;28;20140;-58
2022/02/17 09:21:48;;;;;;;23.92;2.25;;;;;;;;;;5022817;28;20037;-58
2022/02/17 09:24:14;;;;;;;16.67;1.67;;;;;;;;;;5026335;28;20107;-59
2022/02/17 09:26:39;;;;;;;19.25;1.90;;;;;;;;;;5024887;28;20272;-59
2022/02/17 09:29:08;;;;;;;19.30;2.65;;;;;;;;;;5023083;28;20033;-57
2022/02/17 09:31:34;;;;;;;16.02;2.65;;;;;;;;;;5025691;28;20029;-58
2022/02/17 09:33:59;;;;;;;18.92;1.77;;;;;;;;;;5026996;28;20025;-57
2022/02/17 09:36:25;;;;;;;17.88;1.60;;;;;;;;;;5019561;28;20060;-58
2022/02/17 09:38:52;;;;;;;15.20;1.83;;;;;;;;;;5026167;28;20030;-58
2022/02/17 09:41:20;;;;;;;7.50;1.27;;;;;;;;;;5019997;28;20033;-58
2022/02/17 09:43:46;;;;;;;16.13;1.63;;;;;;;;;;5022514;28;20061;-58
2022/02/17 09:46:22;;;;;;;11.20;1.73;;;;;;;;;;5022392;28;20087;-58
2022/02/17 09:49:01;;;;;;;13.88;1.73;;;;;;;;;;5020973;28;20522;-59
2022/02/17 09:51:28;;;;;;;9.77;1.15;;;;;;;;;;5022942;28;20288;-58
2022/02/17 09:53:54;;;;;;;14.13;1.90;;;;;;;;;;5024140;28;20036;-58
2022/02/17 09:56:23;;;;;;;8.10;0.90;;;;;;;;;;5027316;28;20029;-59
2022/02/17 09:58:50;;;;;;;6.97;0.95;;;;;;;;;;5025869;28;20029;-59
2022/02/17 10:01:21;;;;;;;8.88;0.80;;;;;;;;;;5021402;28;20044;-58
2022/02/17 10:03:46;;;;;;;10.43;1.00;;;;;;;;;;5024589;28;20033;-58
2022/02/17 10:06:16;;;;;;;5.18;0.82;;;;;;;;;;5024576;28;20087;-58
2022/02/17 10:08:43;;;;;;;10.18;0.70;;;;;;;;;;5022623;28;20037;-59
2022/02/17 10:11:25;;;;;;;4.10;1.10;;;;;;;;;;5018752;28;20030;-59
2022/02/17 10:14:08;;;;;;;7.53;1.40;;;;;;;;;;5022560;28;20038;-59
2022/02/17 10:16:50;;;;;;;14.32;1.20;;;;;;;;;;5022007;28;20038;-59
2022/02/17 10:19:16;;;;;;;9.57;1.15;;;;;;;;;;5025064;28;20091;-57
2022/02/17 10:21:41;;;;;;;5.72;0.90;;;;;;;;;;5025274;28;20026;-58
2022/02/17 10:24:07;;;;;;;4.57;1.05;;;;;;;;;;5024367;28;20041;-59
2022/02/17 10:26:32;;;;;;;7.90;1.27;;;;;;;;;;5023035;28;20036;-58
2022/02/17 10:29:01;;;;;;;5.07;0.90;;;;;;;;;;5021909;28;20060;-58
2022/02/17 10:31:36;;;;;;;7.50;1.10;;;;;;;;;;5019008;28;20464;-58
2022/02/17 10:34:04;;;;;;;13.25;1.85;;;;;;;;;;5015367;28;20033;-58
2022/02/17 10:36:36;;;;;;;13.18;2.03;;;;;;;;;;5021484;28;20052;-59
2022/02/17 10:39:11;;;;;;;9.50;1.95;;;;;;;;;;5019236;28;20030;-57
2022/02/17 10:41:46;;;;;;;10.07;1.67;;;;;;;;;;5024278;28;20514;-59
2022/02/17 10:44:12;;;;;;;10.15;1.90;;;;;;;;;;5018680;28;20025;-59
2022/02/17 10:46:38;;;;;;;6.65;1.40;;;;;;;;;;5024571;28;20048;-59
2022/02/17 10:49:17;;;;;;;8.80;1.27;;;;;;;;;;5022324;28;20048;-60
2022/02/17 10:51:44;;;;;;;3.67;0.63;;;;;;;;;;5024657;28;20029;-59
2022/02/17 10:54:10;;;;;;;3.72;0.88;;;;;;;;;;5020889;28;20037;-59
2022/02/17 10:56:36;;;;;;;1.17;0.50;;;;;;;;;;5023625;28;20055;-59
2022/02/17 10:59:04;;;;;;;5.80;1.13;;;;;;;;;;5019335;28;20029;-59
2022/02/17 11:01:30;;;;;;;11.52;1.10;;;;;;;;;;5024022;28;20025;-58
2022/02/17 11:03:56;;;;;;;8.07;0.85;;;;;;;;;;5025986;28;20120;-59
2022/02/17 11:06:22;;;;;;;10.15;1.02;;;;;;;;;;5024648;28;20060;-59
2022/02/17 11:08:50;;;;;;;12.35;1.58;;;;;;;;;;5021368;28;20029;-58
2022/02/17 11:11:18;;;;;;;2.08;0.98;;;;;;;;;;5020220;28;20045;-59
2022/02/17 11:13:49;;;;;;;5.07;1.17;;;;;;;;;;5017911;28;20029;-59
2022/02/17 11:16:17;;;;;;;4.45;1.15;;;;;;;;;;5022627;28;20099;-59
2022/02/17 11:18:44;;;;;;;2.92;0.57;;;;;;;;;;5017248;28;20095;-59
2022/02/17 11:21:15;;;;;;;6.45;1.77;;;;;;;;;;5022123;28;20175;-59
2022/02/17 11:23:44;;;;;;;4.93;1.20;;;;;;;;;;5025360;28;20040;-59
2022/02/17 11:26:30;;;;;;;1.38;0.50;;;;;;;;;;5025368;28;20070;-59
2022/02/17 11:29:14;;;;;;;3.28;0.98;;;;;;;;;;5020076;28;20427;-59
2022/02/17 11:32:00;;;;;;;4.88;1.30;;;;;;;;;;5022608;28;20033;-59
2022/02/17 11:34:43;;;;;;;1.65;0.47;;;;;;;;;;5015026;28;20034;-59
2022/02/17 11:37:21;;;;;;;4.22;0.82;;;;;;;;;;5021790;28;20052;-59
2022/02/17 11:40:07;;;;;;;3.65;1.05;;;;;;;;;;5023847;28;20062;-59
2022/02/17 11:42:42;;;;;;;4.65;0.70;;;;;;;;;;5023226;28;20029;-58
2022/02/17 11:45:10;;;;;;;2.42;0.73;;;;;;;;;;5020053;28;20034;-58
2022/02/17 11:48:03;;;;;;;4.88;1.30;;;;;;;;;;5019010;28;20103;-58
2022/02/17 11:50:38;;;;;;;5.95;1.35;;;;;;;;;;5017496;28;20419;-58
2022/02/17 11:53:30;;;;;;;5.30;1.42;;;;;;;;;;5022025;28;20025;-59
2022/02/17 11:56:17;;;;;;;6.45;2.15;;;;;;;;;;5020926;28;20048;-59
2022/02/17 11:58:53;;;;;;;5.20;1.30;;;;;;;;;;5016297;28;20087;-59
2022/02/17 12:01:42;;;;;;;4.78;1.25;;;;;;;;;;5022706;28;20487;-59
2022/02/17 12:04:17;;;;;;;6.43;2.00;;;;;;;;;;5021250;28;20056;-59
2022/02/17 12:06:51;;;;;;;6.93;1.58;;;;;;;;;;5024874;28;20489;-58
2022/02/17 12:09:50;;;;;;;10.88;2.30;;;;;;;;;;5018749;28;20033;-58
2022/02/17 12:12:24;;;;;;;8.98;1.90;;;;;;;;;;5023635;28;20048;-58
2022/02/17 12:14:57;;;;;;;7.28;1.92;;;;;;;;;;5019544;28;20075;-58
2022/02/17 12:17:29;;;;;;;11.20;2.45;;;;;;;;;;5016966;28;20411;-58
2022/02/17 12:20:13;;;;;;;;;;;;;;;;;;5018779;28;20036;-58
2022/02/17 12:22:49;;;;;;;6.45;1.10;;;;;;;;;;5027690;28;19913;-59
2022/02/17 12:25:27;;;;;;;6.43;1.50;;;;;;;;;;5022945;28;20036;-58
2022/02/17 12:27:56;;;;;;;6.20;1.45;;;;;;;;;;5017253;28;20033;-58
2022/02/17 12:30:27;;;;;;;8.40;1.77;;;;;;;;;;5019642;28;20523;-59
2022/02/17 12:33:14;;;;;;;7.03;1.70;;;;;;;;;;5028759;28;20032;-58
2022/02/17 12:35:51;;;;;;;6.15;1.60;;;;;;;;;;5022139;28;20054;-59
2022/02/17 12:38:21;;;;;;;9.85;1.80;;;;;;;;;;5024031;28;20124;-59
2022/02/17 12:40:48;;;;;;;3.53;1.33;;;;;;;;;;5028034;28;20500;-59
2022/02/17 12:43:28;;;;;;;4.15;1.38;;;;;;;;;;5025696;28;20531;-58
2022/02/17 12:45:55;;;;;;;3.67;0.90;;;;;;;;;;5028146;28;20025;-58
2022/02/17 12:48:20;;;;;;;9.52;0.95;;;;;;;;;;5027037;28;20143;-58
2022/02/17 12:50:46;;;;;;;6.38;0.80;;;;;;;;;;5028689;28;20072;-58
2022/02/17 12:53:12;;;;;;;7.10;0.90;;;;;;;;;;5024002;28;20120;-59
2022/02/17 12:55:45;;;;;;;5.75;1.25;;;;;;;;;;5022018;28;20029;-58
2022/02/17 12:58:32;;;;;;;4.97;0.80;;;;;;;;;;5019909;28;20033;-59
2022/02/17 13:00:58;;;;;;;3.38;1.10;;;;;;;;;;5025074;28;20038;-58
2022/02/17 13:03:30;;;;;;;1.48;0.57;;;;;;;;;;5026309;28;20401;-58
2022/02/17 13:08:39;;;;;;;6.03;1.10;;;;;;;;;;5019062;28;20408;-59
2022/02/17 13:11:10;;;;;;;4.68;1.20;;;;;;;;;;5025492;28;20029;-59
2022/02/17 13:13:36;;;;;;;2.42;0.93;;;;;;;;;;5024058;28;20289;-59
2022/02/17 13:16:01;;;;;;;6.72;1.10;;;;;;;;;;5025529;28;20191;-59
2022/02/17 13:18:27;;;;;;;5.47;1.10;;;;;;;;;;5022611;28;20384;-59
2022/02/17 13:21:08;;;;;;;3.83;1.42;;;;;;;;;;5026106;28;20431;-59
2022/02/17 13:23:33;;;;;;;5.88;1.17;;;;;;;;;;5027781;28;20029;-58
2022/02/17 13:25:59;;;;;;;2.65;0.80;;;;;;;;;;5026973;28;20041;-58
2022/02/17 13:28:24;;;;;;;7.28;1.83;;;;;;;;;;5020892;28;20774;-59
2022/02/17 13:30:49;;;;;;;8.65;1.15;;;;;;;;;;5026708;28;20060;-58
2022/02/17 13:33:18;;;;;;;8.02;1.10;;;;;;;;;;5024119;28;20620;-58
2022/02/17 13:35:50;;;;;;;5.40;0.73;;;;;;;;;;5019442;28;20041;-60
2022/02/17 13:38:15;;;;;;;4.82;1.00;;;;;;;;;;5019564;28;20428;-59
2022/02/17 13:40:49;;;;;;;4.57;1.05;;;;;;;;;;5023053;28;20033;-60
2022/02/17 13:43:16;;;;;;;6.85;1.13;;;;;;;;;;5024191;28;20041;-58
2022/02/17 13:45:47;;;;;;;8.73;1.33;;;;;;;;;;5026974;28;20017;-59
2022/02/17 13:48:33;;;;;;;11.60;1.23;;;;;;;;;;5019760;28;20463;-58
2022/02/17 13:51:00;;;;;;;6.10;1.42;;;;;;;;;;5025805;28;20491;-58
2022/02/17 13:53:46;;;;;;;15.82;2.22;;;;;;;;;;5024715;28;20508;-58
2022/02/17 13:56:19;;;;;;;4.00;0.88;;;;;;;;;;5027801;28;20033;-58
2022/02/17 13:58:46;;;;;;;5.55;1.38;;;;;;;;;;5027592;28;20033;-58
2022/02/17 14:01:12;;;;;;;7.28;1.38;;;;;;;;;;5026119;28;20072;-58
2022/02/17 14:03:44;;;;;;;5.03;1.20;;;;;;;;;;5023057;28;20492;-59
2022/02/17 14:06:26;;;;;;;4.07;1.65;;;;;;;;;;5024372;28;20485;-58
2022/02/17 14:08:51;;;;;;;7.50;1.85;;;;;;;;;;5046605;28;20459;-58
2022/02/17 14:11:19;;;;;;;8.38;1.50;;;;;;;;;;5025648;28;20033;-58
2022/02/17 14:13:44;;;;;;;8.55;1.25;;;;;;;;;;5024739;28;20095;-60
2022/02/17 14:16:11;;;;;;;9.27;0.98;;;;;;;;;;5027634;28;20535;-60
2022/02/17 14:18:36;;;;;;;18.48;1.67;;;;;;;;;;5016367;28;20037;-60
2022/02/17 14:21:03;;;;;;;7.28;1.30;;;;;;;;;;5025833;28;20029;-58
2022/02/17 14:23:29;;;;;;;7.85;1.17;;;;;;;;;;5024683;28;20131;-60
2022/02/17 14:25:55;;;;;;;8.32;1.40;;;;;;;;;;5026883;28;20013;-60
2022/02/17 14:28:21;;;;;;;8.07;1.00;;;;;;;;;;5025814;28;20044;-59
2022/02/17 14:30:47;;;;;;;15.50;1.20;;;;;;;;;;5023511;28;20337;-58
2022/02/17 14:33:17;;;;;;;4.80;0.63;;;;;;;;;;5025080;28;20028;-60
2022/02/17 14:35:45;;;;;;;6.20;0.75;;;;;;;;;;5024868;28;20065;-60
2022/02/17 14:38:11;;;;;;;3.63;0.80;;;;;;;;;;5021432;28;20037;-60
2022/02/17 14:40:40;;;;;;;2.55;1.13;;;;;;;;;;5026378;28;20029;-59
2022/02/17 14:43:10;;;;;;;4.55;0.82;;;;;;;;;;5023425;28;20033;-60
2022/02/17 14:45:37;;;;;;;3.40;0.63;;;;;;;;;;5007448;28;20030;-60